Time;durP1;ratioP1;P1;durP2;ratioP2;P2;SDS_P1;SDS_P2;PMS_P1;PMS_P2;Temp;Humidity;BMP_temperature;BMP_pressure;BME280_temperature;BME280_humidity;BME280_pressure;Samples;Min_cycle;Max_cycle;Signal;HPM_P1;HPM_P2
2022/09/24 00:03:21;;;;;;;14.55;5.07;;;;;;;;;;10570186;28;20052;-75
2022/09/24 00:08:24;;;;;;;23.73;6.82;;;;;;;;;;10549877;28;20092;-75
2022/09/24 00:13:29;;;;;;;25.73;8.37;;;;;;;;;;10549414;28;20043;-75
2022/09/24 00:18:36;;;;;;;35.97;10.98;;;;;;;;;;10573897;28;20047;-75
2022/09/24 00:23:42;;;;;;;17.70;6.80;;;;;;;;;;10582438;27;20039;-76
2022/09/24 00:28:45;;;;;;;20.00;8.00;;;;;;;;;;10549817;28;20058;-76
2022/09/24 00:33:53;;;;;;;27.42;9.30;;;;;;;;;;10551112;28;20221;-76
2022/09/24 00:39:02;;;;;;;12.65;5.68;;;;;;;;;;10573946;28;20473;-78
2022/09/24 00:44:29;;;;;;;27.65;9.32;;;;;;;;;;10566037;28;20063;-77
2022/09/24 00:49:36;;;;;;;24.20;7.32;;;;;;;;;;10549857;28;20047;-76
2022/09/24 00:54:42;;;;;;;23.10;7.10;;;;;;;;;;10556201;28;20051;-78
2022/09/24 00:59:46;;;;;;;21.55;6.90;;;;;;;;;;10571512;28;20040;-76
2022/09/24 01:04:58;;;;;;;31.38;9.07;;;;;;;;;;10569245;27;20130;-76
2022/09/24 01:10:07;;;;;;;29.08;7.90;;;;;;;;;;10569829;28;20042;-75
2022/09/24 01:15:18;;;;;;;21.27;7.05;;;;;;;;;;10563705;27;20040;-76
2022/09/24 01:20:39;;;;;;;24.88;7.65;;;;;;;;;;10553759;28;20055;-75
2022/09/24 01:25:57;;;;;;;10.70;5.38;;;;;;;;;;10574086;28;20073;-77
2022/09/24 01:31:16;;;;;;;5.97;2.65;;;;;;;;;;10553605;28;20040;-76
2022/09/24 01:36:23;;;;;;;9.23;5.05;;;;;;;;;;10552231;28;20044;-75
2022/09/24 01:41:32;;;;;;;11.10;4.50;;;;;;;;;;10533746;28;20038;-76
2022/09/24 01:46:48;;;;;;;6.82;3.88;;;;;;;;;;10568336;28;20047;-76
2022/09/24 01:52:13;;;;;;;7.65;3.55;;;;;;;;;;10568786;28;20434;-76
2022/09/24 01:57:23;;;;;;;7.07;4.32;;;;;;;;;;10546388;28;20118;-76
2022/09/24 02:02:37;;;;;;;11.35;4.28;;;;;;;;;;10567994;28;20035;-75
2022/09/24 02:07:46;;;;;;;6.80;3.50;;;;;;;;;;10547656;28;20118;-75
2022/09/24 02:12:54;;;;;;;7.60;3.60;;;;;;;;;;10551105;28;20038;-76
2022/09/24 02:23:23;;;;;;;;;;;;;;;;;;10531073;28;20055;-76
2022/09/24 02:28:27;;;;;;;6.72;3.63;;;;;;;;;;10565010;28;19930;-75
2022/09/24 02:38:58;;;;;;;10.32;3.45;;;;;;;;;;10568170;28;20144;-75
2022/09/24 02:44:05;;;;;;;8.07;3.63;;;;;;;;;;10563379;28;20035;-75
2022/09/24 02:49:12;;;;;;;7.30;3.80;;;;;;;;;;10564569;28;20047;-75
2022/09/24 02:54:16;;;;;;;6.20;3.65;;;;;;;;;;10568468;28;20063;-75
2022/09/24 02:59:35;;;;;;;6.00;2.30;;;;;;;;;;10567188;28;20398;-77
2022/09/24 03:04:41;;;;;;;6.95;3.38;;;;;;;;;;10555395;28;20128;-75
2022/09/24 03:09:47;;;;;;;9.48;3.60;;;;;;;;;;10566203;28;20027;-76
2022/09/24 03:14:53;;;;;;;7.70;3.40;;;;;;;;;;10565436;28;20338;-77
2022/09/24 03:20:12;;;;;;;4.13;2.40;;;;;;;;;;10542535;28;20410;-78
2022/09/24 03:25:35;;;;;;;7.95;3.80;;;;;;;;;;10540536;28;20067;-76
2022/09/24 03:31:00;;;;;;;6.47;3.65;;;;;;;;;;10532746;28;20166;-76
2022/09/24 03:36:14;;;;;;;7.53;3.83;;;;;;;;;;10562192;28;20500;-75
2022/09/24 03:41:23;;;;;;;7.60;3.70;;;;;;;;;;10563404;28;20194;-76
2022/09/24 03:46:33;;;;;;;6.32;3.72;;;;;;;;;;10572362;27;20134;-76
2022/09/24 03:51:40;;;;;;;6.43;3.53;;;;;;;;;;10531813;28;20058;-77
2022/09/24 03:56:48;;;;;;;6.70;3.78;;;;;;;;;;10539223;28;20046;-76
2022/09/24 04:01:53;;;;;;;8.30;3.70;;;;;;;;;;10573715;28;20119;-76
2022/09/24 04:06:58;;;;;;;8.50;3.47;;;;;;;;;;10550112;28;20118;-76
2022/09/24 04:12:06;;;;;;;7.82;3.28;;;;;;;;;;10568718;27;20478;-77
2022/09/24 04:17:13;;;;;;;7.15;3.47;;;;;;;;;;10568188;28;20036;-76
2022/09/24 04:22:17;;;;;;;7.07;3.60;;;;;;;;;;10547407;28;20515;-75
2022/09/24 04:27:27;;;;;;;6.35;3.50;;;;;;;;;;10534132;28;20051;-75
2022/09/24 04:32:32;;;;;;;8.02;3.40;;;;;;;;;;10552052;28;20040;-77
2022/09/24 04:37:37;;;;;;;5.30;3.08;;;;;;;;;;10555024;28;20131;-78
2022/09/24 04:42:43;;;;;;;6.45;3.35;;;;;;;;;;10568128;27;20202;-77
2022/09/24 04:47:55;;;;;;;7.00;2.90;;;;;;;;;;10555511;28;20089;-77
2022/09/24 04:53:08;;;;;;;6.07;2.60;;;;;;;;;;10519111;28;20043;-76
2022/09/24 04:58:17;;;;;;;5.35;3.30;;;;;;;;;;10543855;28;20434;-78
2022/09/24 05:03:21;;;;;;;7.95;3.90;;;;;;;;;;10568386;27;20526;-76
2022/09/24 05:08:38;;;;;;;6.93;3.55;;;;;;;;;;10570089;28;20403;-77
2022/09/24 05:13:59;;;;;;;9.43;3.50;;;;;;;;;;10546744;28;20089;-77
2022/09/24 05:19:08;;;;;;;6.10;3.10;;;;;;;;;;10549026;28;20366;-78
2022/09/24 05:24:13;;;;;;;4.93;3.13;;;;;;;;;;10567825;28;20260;-76
2022/09/24 05:29:23;;;;;;;7.60;2.95;;;;;;;;;;10568285;27;20158;-76
2022/09/24 05:34:40;;;;;;;5.88;2.53;;;;;;;;;;10568415;27;20050;-77
2022/09/24 05:39:47;;;;;;;5.28;3.25;;;;;;;;;;10546069;28;20060;-77
2022/09/24 05:44:54;;;;;;;7.13;2.78;;;;;;;;;;10547244;28;20036;-78
2022/09/24 05:50:00;;;;;;;6.78;3.35;;;;;;;;;;10529907;28;20128;-77
2022/09/24 05:55:06;;;;;;;7.45;3.10;;;;;;;;;;10535343;28;20043;-76
2022/09/24 06:00:15;;;;;;;4.85;3.00;;;;;;;;;;10548573;28;20043;-75
2022/09/24 06:05:19;;;;;;;7.10;3.13;;;;;;;;;;10527301;28;20040;-77
2022/09/24 06:10:25;;;;;;;3.35;2.03;;;;;;;;;;10564454;28;20043;-77
2022/09/24 06:15:37;;;;;;;7.38;3.10;;;;;;;;;;10544790;28;20055;-77
2022/09/24 06:20:41;;;;;;;4.38;2.08;;;;;;;;;;10564239;28;20581;-76
2022/09/24 06:25:51;;;;;;;2.75;1.60;;;;;;;;;;10564842;28;20044;-78
2022/09/24 06:30:59;;;;;;;6.03;3.05;;;;;;;;;;10564396;28;20036;-77
2022/09/24 06:36:08;;;;;;;5.07;2.67;;;;;;;;;;10546175;28;20031;-78
2022/09/24 06:41:12;;;;;;;5.57;3.10;;;;;;;;;;10543164;28;20043;-78
2022/09/24 06:46:21;;;;;;;8.40;3.60;;;;;;;;;;10532942;28;20040;-78
2022/09/24 06:51:32;;;;;;;6.50;3.40;;;;;;;;;;10560246;28;20043;-78
2022/09/24 06:56:39;;;;;;;7.53;3.40;;;;;;;;;;10566617;28;20081;-78
2022/09/24 07:01:58;;;;;;;7.15;3.47;;;;;;;;;;10579390;28;20058;-79
2022/09/24 07:12:31;;;;;;;8.38;3.35;;;;;;;;;;10548863;28;20054;-77
2022/09/24 07:17:49;;;;;;;5.05;2.78;;;;;;;;;;10556345;28;20078;-94
2022/09/24 07:23:12;;;;;;;7.40;3.50;;;;;;;;;;10571205;28;20044;-73
2022/09/24 07:28:17;;;;;;;4.95;2.75;;;;;;;;;;10567918;28;20044;-72
2022/09/24 07:33:31;;;;;;;6.97;3.33;;;;;;;;;;10569406;28;20043;-77
2022/09/24 07:38:38;;;;;;;5.65;2.80;;;;;;;;;;10559074;28;20042;-79
2022/09/24 07:43:45;;;;;;;5.28;2.78;;;;;;;;;;10553624;27;20118;-79
2022/09/24 07:48:53;;;;;;;5.18;2.92;;;;;;;;;;10557240;28;20043;-77
2022/09/24 07:54:07;;;;;;;3.65;2.63;;;;;;;;;;10549526;28;20157;-77
2022/09/24 07:59:12;;;;;;;8.43;3.00;;;;;;;;;;10565090;28;20165;-78
2022/09/24 08:04:26;;;;;;;5.28;2.50;;;;;;;;;;10565610;28;20552;-78
2022/09/24 08:09:31;;;;;;;7.07;3.20;;;;;;;;;;10558529;28;20039;-78
2022/09/24 08:14:35;;;;;;;6.13;3.17;;;;;;;;;;10567466;28;20039;-77
2022/09/24 08:19:42;;;;;;;7.15;3.80;;;;;;;;;;10567516;28;20462;-77
2022/09/24 08:24:50;;;;;;;5.97;3.15;;;;;;;;;;10546273;28;20100;-77
2022/09/24 08:29:59;;;;;;;10.50;3.67;;;;;;;;;;10571029;28;20031;-77
2022/09/24 08:35:11;;;;;;;7.28;4.07;;;;;;;;;;10549949;28;20061;-77
2022/09/24 08:40:18;;;;;;;10.68;4.50;;;;;;;;;;10566999;28;20146;-78
2022/09/24 08:50:49;;;;;;;10.48;4.35;;;;;;;;;;10563156;27;20039;-78
2022/09/24 08:56:03;;;;;;;9.25;4.30;;;;;;;;;;10547075;28;20129;-78
2022/09/24 09:01:13;;;;;;;11.85;4.40;;;;;;;;;;10564606;28;20050;-78
2022/09/24 09:06:30;;;;;;;10.05;4.78;;;;;;;;;;10546399;28;20433;-78
2022/09/24 09:11:44;;;;;;;7.83;3.97;;;;;;;;;;10573516;27;20031;-79
2022/09/24 09:17:09;;;;;;;7.85;3.63;;;;;;;;;;10566639;28;20132;-78
2022/09/24 09:22:17;;;;;;;5.97;3.67;;;;;;;;;;10569305;28;20039;-78
2022/09/24 09:27:36;;;;;;;10.63;4.10;;;;;;;;;;10556877;28;20075;-78
2022/09/24 09:32:44;;;;;;;6.40;3.95;;;;;;;;;;10544953;28;20146;-78
2022/09/24 09:37:57;;;;;;;8.27;4.03;;;;;;;;;;10552184;28;20093;-78
2022/09/24 09:43:10;;;;;;;7.03;3.95;;;;;;;;;;10544234;28;20511;-78
2022/09/24 09:48:15;;;;;;;11.27;4.18;;;;;;;;;;10569123;28;20051;-78
2022/09/24 09:53:23;;;;;;;9.18;3.95;;;;;;;;;;10566519;28;20040;-78
2022/09/24 09:58:43;;;;;;;6.95;3.63;;;;;;;;;;10547943;28;20219;-78
2022/09/24 10:03:48;;;;;;;6.93;3.85;;;;;;;;;;10544700;28;20036;-77
2022/09/24 10:09:08;;;;;;;4.47;2.30;;;;;;;;;;10564672;28;20035;-77
2022/09/24 10:14:27;;;;;;;5.90;3.75;;;;;;;;;;10547303;28;20069;-78
2022/09/24 10:19:34;;;;;;;6.03;3.65;;;;;;;;;;10545441;28;20044;-77
2022/09/24 10:24:47;;;;;;;5.45;3.13;;;;;;;;;;10562471;28;20083;-78
2022/09/24 10:35:23;;;;;;;7.57;4.05;;;;;;;;;;10548016;28;20104;-77
2022/09/24 10:40:43;;;;;;;6.43;4.00;;;;;;;;;;10559070;28;20040;-77
2022/09/24 10:46:04;;;;;;;9.55;4.25;;;;;;;;;;10545431;28;20044;-79
2022/09/24 10:51:14;;;;;;;7.15;4.28;;;;;;;;;;10540792;28;20148;-79
2022/09/24 10:56:34;;;;;;;9.70;4.97;;;;;;;;;;10547256;28;20046;-76
2022/09/24 11:01:44;;;;;;;10.63;4.35;;;;;;;;;;10524685;28;20040;-77
2022/09/24 11:06:57;;;;;;;5.28;3.20;;;;;;;;;;10542451;28;20118;-79
2022/09/24 11:12:07;;;;;;;8.45;4.28;;;;;;;;;;10547024;28;20525;-77
2022/09/24 11:23:11;;;;;;;6.78;3.55;;;;;;;;;;10538759;28;20066;-76
2022/09/24 11:28:28;;;;;;;7.13;3.42;;;;;;;;;;10555573;28;20182;-77
2022/09/24 11:33:44;;;;;;;5.70;3.63;;;;;;;;;;10544728;28;20043;-76
2022/09/24 11:39:00;;;;;;;6.40;4.20;;;;;;;;;;10535104;28;20052;-77
2022/09/24 11:44:24;;;;;;;11.93;4.93;;;;;;;;;;10541303;28;20043;-78
2022/09/24 11:49:36;;;;;;;9.98;5.05;;;;;;;;;;10562504;28;20101;-78
2022/09/24 11:54:45;;;;;;;10.73;5.47;;;;;;;;;;10531703;28;20047;-78
2022/09/24 11:59:54;;;;;;;8.80;5.10;;;;;;;;;;10538007;28;20130;-78
2022/09/24 12:05:02;;;;;;;9.20;4.82;;;;;;;;;;10565112;28;20063;-77
2022/09/24 12:10:28;;;;;;;9.98;5.35;;;;;;;;;;10537112;28;20515;-78
2022/09/24 12:15:50;;;;;;;9.98;5.03;;;;;;;;;;10551802;28;20039;-78
2022/09/24 12:20:57;;;;;;;8.13;5.10;;;;;;;;;;10550934;28;20035;-77
2022/09/24 12:26:04;;;;;;;9.25;4.78;;;;;;;;;;10557806;27;20500;-77
2022/09/24 12:36:41;;;;;;;9.23;5.20;;;;;;;;;;10565348;28;20042;-79
2022/09/24 12:41:53;;;;;;;7.93;4.88;;;;;;;;;;10561579;28;20521;-78
2022/09/24 12:47:05;;;;;;;8.15;4.78;;;;;;;;;;10566015;28;20048;-79
2022/09/24 12:52:16;;;;;;;8.27;4.60;;;;;;;;;;10541949;28;20050;-78
2022/09/24 12:57:26;;;;;;;9.18;5.00;;;;;;;;;;10565388;28;20124;-78
2022/09/24 13:02:44;;;;;;;8.75;5.22;;;;;;;;;;10559722;28;20088;-78
2022/09/24 13:08:23;;;;;;;6.65;4.57;;;;;;;;;;10542568;28;20135;-78
2022/09/24 13:13:31;;;;;;;8.05;4.82;;;;;;;;;;10550492;28;20047;-77
2022/09/24 13:18:38;;;;;;;8.95;5.30;;;;;;;;;;10547726;28;20069;-77
2022/09/24 13:23:45;;;;;;;7.05;4.40;;;;;;;;;;10564488;28;20048;-78
2022/09/24 13:28:56;;;;;;;6.70;4.60;;;;;;;;;;10565052;28;20104;-78
2022/09/24 13:34:30;;;;;;;7.30;4.53;;;;;;;;;;10563741;28;20071;-78
2022/09/24 13:39:44;;;;;;;7.03;4.60;;;;;;;;;;10548515;28;20044;-79
2022/09/24 13:44:53;;;;;;;9.70;4.75;;;;;;;;;;10528485;28;20086;-77
2022/09/24 13:50:06;;;;;;;8.48;4.70;;;;;;;;;;10537442;28;20047;-79
2022/09/24 13:55:18;;;;;;;10.25;4.55;;;;;;;;;;10561083;28;20373;-77
2022/09/24 14:00:52;;;;;;;8.48;4.78;;;;;;;;;;10547007;28;20117;-79
2022/09/24 14:11:50;;;;;;;7.93;5.03;;;;;;;;;;10564776;28;20038;-77
2022/09/24 14:17:06;;;;;;;8.32;5.22;;;;;;;;;;10545028;28;20039;-77
2022/09/24 14:22:23;;;;;;;9.07;5.38;;;;;;;;;;10540449;28;20486;-77
2022/09/24 14:27:38;;;;;;;9.25;5.00;;;;;;;;;;10563803;28;20032;-77
2022/09/24 14:32:46;;;;;;;10.23;5.03;;;;;;;;;;10577338;27;20043;-77
2022/09/24 14:37:54;;;;;;;9.05;4.85;;;;;;;;;;10542279;28;20214;-78
2022/09/24 14:43:07;;;;;;;7.85;4.53;;;;;;;;;;10558402;28;20421;-78
2022/09/24 14:48:21;;;;;;;;;;;;;;;;;;10560166;28;20039;-78
2022/09/24 14:53:31;;;;;;;7.43;4.60;;;;;;;;;;10564663;27;20023;-78
2022/09/24 14:58:36;;;;;;;7.15;4.93;;;;;;;;;;10565432;28;20695;-77
2022/09/24 15:03:43;;;;;;;10.57;4.80;;;;;;;;;;10544520;28;20054;-77
2022/09/24 15:08:54;;;;;;;9.43;5.38;;;;;;;;;;10543636;28;20366;-77
2022/09/24 15:14:03;;;;;;;8.95;5.25;;;;;;;;;;10544802;28;20054;-77
2022/09/24 15:19:18;;;;;;;9.90;5.20;;;;;;;;;;10563637;28;20035;-77
2022/09/24 15:24:24;;;;;;;9.85;5.22;;;;;;;;;;10558261;28;20044;-77
2022/09/24 15:29:36;;;;;;;10.93;6.03;;;;;;;;;;10541647;28;20509;-77
2022/09/24 15:34:42;;;;;;;11.45;6.63;;;;;;;;;;10562993;28;20047;-77
2022/09/24 15:39:54;;;;;;;13.27;6.18;;;;;;;;;;10550108;28;20124;-78
2022/09/24 15:45:01;;;;;;;12.30;6.38;;;;;;;;;;10574033;28;20059;-79
2022/09/24 15:50:10;;;;;;;12.63;7.10;;;;;;;;;;10540561;27;20055;-78
2022/09/24 15:55:16;;;;;;;11.02;7.00;;;;;;;;;;10568359;28;20063;-77
2022/09/24 16:00:24;;;;;;;12.88;7.80;;;;;;;;;;10568291;28;20526;-76
2022/09/24 16:05:30;;;;;;;14.15;8.00;;;;;;;;;;10573431;28;20044;-76
2022/09/24 16:10:38;;;;;;;17.48;9.98;;;;;;;;;;10570494;28;20036;-76
2022/09/24 16:15:48;;;;;;;20.35;10.43;;;;;;;;;;10552404;28;20040;-76
2022/09/24 16:20:56;;;;;;;15.73;7.93;;;;;;;;;;10554518;28;20043;-77
2022/09/24 16:26:02;;;;;;;15.60;8.68;;;;;;;;;;10571607;28;20142;-76
2022/09/24 16:31:08;;;;;;;16.45;9.38;;;;;;;;;;10554669;28;20052;-77
2022/09/24 16:36:14;;;;;;;18.60;9.45;;;;;;;;;;10554279;28;20042;-77
2022/09/24 16:41:22;;;;;;;20.95;9.52;;;;;;;;;;10551219;28;20073;-77
2022/09/24 16:46:34;;;;;;;18.08;9.43;;;;;;;;;;10552266;28;20048;-76
2022/09/24 16:51:41;;;;;;;16.25;8.50;;;;;;;;;;10555646;28;20058;-76
2022/09/24 16:56:50;;;;;;;19.95;9.73;;;;;;;;;;10542634;28;20035;-76
2022/09/24 17:02:02;;;;;;;18.30;9.90;;;;;;;;;;10551060;28;20063;-76
2022/09/24 17:07:09;;;;;;;20.60;10.43;;;;;;;;;;10551257;28;20477;-77
2022/09/24 17:12:13;;;;;;;28.05;14.70;;;;;;;;;;10564520;28;20516;-77
2022/09/24 17:17:29;;;;;;;18.52;10.10;;;;;;;;;;10565997;27;20124;-76
2022/09/24 17:22:35;;;;;;;17.98;9.85;;;;;;;;;;10541023;28;20048;-76
2022/09/24 17:27:44;;;;;;;28.58;15.38;;;;;;;;;;10549796;28;20501;-78
2022/09/24 17:32:51;;;;;;;22.83;11.45;;;;;;;;;;10553892;28;20043;-76
2022/09/24 17:37:57;;;;;;;21.45;11.18;;;;;;;;;;10562222;28;20462;-76
2022/09/24 17:43:30;;;;;;;21.90;11.05;;;;;;;;;;10566575;28;20040;-77
2022/09/24 17:48:38;;;;;;;25.52;12.02;;;;;;;;;;10561988;28;20496;-76
2022/09/24 17:53:44;;;;;;;22.75;11.88;;;;;;;;;;10542269;28;20039;-76
2022/09/24 17:58:48;;;;;;;22.63;11.48;;;;;;;;;;10564471;28;20048;-76
2022/09/24 18:03:56;;;;;;;22.48;10.45;;;;;;;;;;10560167;28;20074;-75
2022/09/24 18:09:01;;;;;;;20.83;10.77;;;;;;;;;;10527348;28;20126;-76
2022/09/24 18:14:05;;;;;;;27.33;11.23;;;;;;;;;;10540813;28;20271;-75
2022/09/24 18:19:14;;;;;;;27.90;12.98;;;;;;;;;;10542349;28;20126;-76
2022/09/24 18:24:21;;;;;;;22.08;11.80;;;;;;;;;;10561103;27;20393;-76
2022/09/24 18:29:27;;;;;;;30.20;14.38;;;;;;;;;;10528540;28;20045;-76
2022/09/24 18:34:39;;;;;;;24.17;12.70;;;;;;;;;;10546160;28;20051;-77
2022/09/24 18:39:49;;;;;;;27.95;14.00;;;;;;;;;;10562162;28;20353;-76
2022/09/24 18:44:54;;;;;;;27.77;14.15;;;;;;;;;;10546520;28;20039;-75
2022/09/24 18:50:03;;;;;;;26.08;13.55;;;;;;;;;;10541232;28;20035;-74
2022/09/24 18:55:08;;;;;;;26.75;13.75;;;;;;;;;;10524496;28;20036;-76
2022/09/24 19:00:48;;;;;;;28.70;15.48;;;;;;;;;;10561247;27;20394;-75
2022/09/24 19:05:43;;;;;;;27.77;14.63;;;;;;;;;;10559977;28;20156;-76
2022/09/24 19:10:52;;;;;;;28.70;15.90;;;;;;;;;;10554475;28;20032;-75
2022/09/24 19:15:56;;;;;;;25.15;11.32;;;;;;;;;;10542901;28;20054;-74
2022/09/24 19:21:05;;;;;;;28.02;14.15;;;;;;;;;;10561236;28;20047;-75
2022/09/24 19:26:09;;;;;;;28.80;16.10;;;;;;;;;;10549940;27;20043;-75
2022/09/24 19:31:14;;;;;;;29.63;12.82;;;;;;;;;;10565855;28;20047;-75
2022/09/24 19:36:24;;;;;;;29.02;14.48;;;;;;;;;;10567767;28;20433;-75
2022/09/24 19:41:37;;;;;;;26.38;12.98;;;;;;;;;;10546819;28;20038;-75
2022/09/24 19:46:42;;;;;;;;;;;;;;;;;;10564502;28;20036;-74
2022/09/24 19:51:51;;;;;;;34.10;16.03;;;;;;;;;;10548716;28;19934;-75
2022/09/24 19:56:54;;;;;;;29.90;15.65;;;;;;;;;;10563308;28;20046;-75
2022/09/24 20:02:02;;;;;;;32.65;16.67;;;;;;;;;;10569363;27;20048;-76
2022/09/24 20:07:13;;;;;;;29.00;14.25;;;;;;;;;;10549166;28;20278;-76
2022/09/24 20:12:19;;;;;;;;;;;;;;;;;;10548391;28;20044;-75
2022/09/24 20:17:26;;;;;;;33.38;17.23;;;;;;;;;;10546796;28;19924;-76
2022/09/24 20:22:32;;;;;;;28.23;15.30;;;;;;;;;;10548656;28;20456;-75
2022/09/24 20:27:52;;;;;;;30.55;15.07;;;;;;;;;;10559431;28;20153;-75
2022/09/24 20:32:59;;;;;;;32.60;16.85;;;;;;;;;;10547737;28;20402;-75
2022/09/24 20:38:05;;;;;;;33.63;16.35;;;;;;;;;;10561162;28;20404;-75
2022/09/24 20:43:09;;;;;;;34.67;17.20;;;;;;;;;;10563556;28;20096;-75
2022/09/24 20:48:16;;;;;;;34.70;18.00;;;;;;;;;;10564121;28;20473;-75
2022/09/24 20:53:28;;;;;;;34.25;16.42;;;;;;;;;;10566512;27;20188;-76
2022/09/24 20:58:32;;;;;;;34.15;15.13;;;;;;;;;;10567740;28;20032;-77
2022/09/24 21:03:41;;;;;;;39.90;19.98;;;;;;;;;;10554230;27;20135;-74
2022/09/24 21:08:49;;;;;;;42.60;19.13;;;;;;;;;;10539213;28;20397;-75
2022/09/24 21:13:55;;;;;;;39.65;17.83;;;;;;;;;;10548246;28;20062;-74
2022/09/24 21:18:59;;;;;;;32.17;15.38;;;;;;;;;;10549194;28;20043;-76
2022/09/24 21:24:06;;;;;;;27.38;14.50;;;;;;;;;;10566876;28;20436;-74
2022/09/24 21:29:13;;;;;;;20.98;10.48;;;;;;;;;;10566495;28;20055;-75
2022/09/24 21:34:18;;;;;;;27.25;13.82;;;;;;;;;;10548109;28;20058;-75
2022/09/24 21:39:25;;;;;;;19.88;10.90;;;;;;;;;;10546721;28;20043;-74
2022/09/24 21:44:32;;;;;;;18.55;9.55;;;;;;;;;;10562184;28;20055;-75
2022/09/24 21:49:38;;;;;;;45.90;22.30;;;;;;;;;;10563771;28;20036;-75
2022/09/24 21:54:51;;;;;;;18.33;9.38;;;;;;;;;;10559510;28;20071;-74
2022/09/24 22:00:08;;;;;;;20.67;10.43;;;;;;;;;;10526785;28;20920;-74
2022/09/24 22:05:21;;;;;;;17.33;9.38;;;;;;;;;;10526542;28;20044;-75
2022/09/24 22:10:28;;;;;;;15.10;7.60;;;;;;;;;;10563868;28;20411;-75
2022/09/24 22:15:32;;;;;;;12.80;7.22;;;;;;;;;;10564883;28;20074;-74
2022/09/24 22:20:40;;;;;;;76.35;35.33;;;;;;;;;;10545251;28;20497;-74
2022/09/24 22:25:57;;;;;;;19.48;9.75;;;;;;;;;;10550938;28;20043;-76
2022/09/24 22:31:08;;;;;;;16.67;8.00;;;;;;;;;;10549416;28;20032;-75
2022/09/24 22:36:15;;;;;;;20.00;10.10;;;;;;;;;;10544801;28;20147;-75
2022/09/24 22:41:27;;;;;;;18.70;9.95;;;;;;;;;;10546155;28;20042;-75
2022/09/24 22:46:39;;;;;;;20.60;9.88;;;;;;;;;;10561476;28;20125;-74
2022/09/24 22:51:43;;;;;;;23.60;11.00;;;;;;;;;;10544485;28;20047;-75
2022/09/24 22:56:50;;;;;;;26.85;12.23;;;;;;;;;;10561610;28;20103;-75
2022/09/24 23:01:55;;;;;;;26.10;11.60;;;;;;;;;;10545612;28;20047;-75
2022/09/24 23:07:09;;;;;;;23.73;11.35;;;;;;;;;;10536165;28;20035;-75
2022/09/24 23:12:15;;;;;;;27.17;11.82;;;;;;;;;;10564247;28;20473;-76
2022/09/24 23:17:20;;;;;;;30.08;12.63;;;;;;;;;;10530326;28;20424;-75
2022/09/24 23:22:28;;;;;;;34.92;14.55;;;;;;;;;;10526912;28;20043;-75
2022/09/24 23:27:36;;;;;;;29.98;12.93;;;;;;;;;;10559742;28;20184;-75
2022/09/24 23:32:40;;;;;;;32.83;13.80;;;;;;;;;;10545975;28;20449;-74
2022/09/24 23:37:56;;;;;;;30.15;13.05;;;;;;;;;;10563627;28;20038;-74
2022/09/24 23:43:12;;;;;;;32.22;13.95;;;;;;;;;;10560409;28;20076;-74
2022/09/24 23:48:17;;;;;;;;;;;;;;;;;;10545097;28;20097;-74
2022/09/24 23:53:23;;;;;;;26.73;12.98;;;;;;;;;;10544834;28;19923;-76
2022/09/24 23:58:29;;;;;;;29.95;13.25;;;;;;;;;;10559589;28;20135;-75
